Time;durP1;ratioP1;P1;durP2;ratioP2;P2;SDS_P1;SDS_P2;PMS_P1;PMS_P2;Temp;Humidity;BMP_temperature;BMP_pressure;BME280_temperature;BME280_humidity;BME280_pressure;Samples;Min_cycle;Max_cycle;Signal;HPM_P1;HPM_P2
2023/11/15 00:00:49;;;;;;;0.93;0.43;;;13.40;99.90;;;;;;5051625;28;20202;-57
2023/11/15 00:03:17;;;;;;;2.70;0.60;;;13.40;99.90;;;;;;5051760;28;20206;-58
2023/11/15 00:05:44;;;;;;;2.00;0.50;;;13.30;99.90;;;;;;5051250;28;20232;-58
2023/11/15 00:08:10;;;;;;;4.67;1.10;;;13.30;99.90;;;;;;5051422;28;20252;-58
2023/11/15 00:10:40;;;;;;;3.70;0.50;;;13.40;99.90;;;;;;5051515;28;20209;-58
2023/11/15 00:13:07;;;;;;;4.10;0.60;;;13.40;99.90;;;;;;5051207;28;20206;-57
2023/11/15 00:15:34;;;;;;;2.57;0.67;;;13.50;99.90;;;;;;5051113;28;20222;-57
2023/11/15 00:18:04;;;;;;;2.23;0.70;;;13.40;99.90;;;;;;5035045;28;20217;-57
2023/11/15 00:20:33;;;;;;;2.37;0.70;;;13.20;99.90;;;;;;5051347;28;20420;-57
2023/11/15 00:23:00;;;;;;;2.03;0.63;;;13.40;99.90;;;;;;5051304;28;20205;-57
2023/11/15 00:25:27;;;;;;;3.80;0.63;;;13.40;99.90;;;;;;5051053;28;20236;-57
2023/11/15 00:27:55;;;;;;;1.40;0.47;;;13.50;99.90;;;;;;5050964;28;20576;-58
2023/11/15 00:30:22;;;;;;;2.50;0.60;;;13.50;99.90;;;;;;5051263;28;20284;-57
2023/11/15 00:32:50;;;;;;;1.87;0.47;;;13.60;99.90;;;;;;5051103;28;20640;-55
2023/11/15 00:35:17;;;;;;;1.60;0.57;;;13.60;99.90;;;;;;5050721;28;20224;-58
2023/11/15 00:37:45;;;;;;;3.17;0.40;;;13.50;99.90;;;;;;5051077;28;20206;-57
2023/11/15 00:40:15;;;;;;;0.73;0.40;;;13.60;99.90;;;;;;5051162;28;20209;-58
2023/11/15 00:42:42;;;;;;;2.10;0.60;;;13.60;99.90;;;;;;5051010;28;20691;-57
2023/11/15 00:45:10;;;;;;;1.63;0.40;;;13.60;99.90;;;;;;5050867;28;20713;-57
2023/11/15 00:47:37;;;;;;;2.50;0.80;;;13.60;99.90;;;;;;5050885;28;20367;-57
2023/11/15 00:50:05;;;;;;;2.93;0.80;;;13.50;99.90;;;;;;5043114;28;20209;-57
2023/11/15 00:52:31;;;;;;;3.93;0.87;;;13.50;99.90;;;;;;5051470;28;20202;-58
2023/11/15 00:55:00;;;;;;;1.80;0.63;;;13.50;99.90;;;;;;5050627;28;20278;-58
2023/11/15 00:57:26;;;;;;;3.70;0.80;;;13.50;99.90;;;;;;5050903;28;20209;-58
2023/11/15 00:59:54;;;;;;;1.80;0.57;;;13.40;99.90;;;;;;5050503;28;20225;-58
2023/11/15 01:02:21;;;;;;;1.90;0.63;;;13.40;99.90;;;;;;5050845;28;20201;-57
2023/11/15 01:04:49;;;;;;;3.10;1.17;;;13.30;99.90;;;;;;5051058;28;20221;-57
2023/11/15 01:07:15;;;;;;;1.50;0.50;;;13.30;99.90;;;;;;5054786;28;20232;-58
2023/11/15 01:09:42;;;;;;;2.90;0.60;;;13.20;99.90;;;;;;5054791;28;20209;-57
2023/11/15 01:12:10;;;;;;;1.67;0.60;;;13.10;99.90;;;;;;5054709;28;20628;-57
2023/11/15 01:14:37;;;;;;;2.43;0.97;;;13.10;99.90;;;;;;5054373;28;20304;-57
2023/11/15 01:17:05;;;;;;;1.03;0.30;;;13.00;99.90;;;;;;5038563;28;20702;-56
2023/11/15 01:19:32;;;;;;;1.70;0.50;;;12.90;99.90;;;;;;5054577;28;20217;-57
2023/11/15 01:21:59;;;;;;;1.60;0.70;;;12.80;99.90;;;;;;5054494;28;20211;-57
2023/11/15 01:24:26;;;;;;;1.63;0.60;;;12.70;99.90;;;;;;5054301;28;20674;-57
2023/11/15 01:26:52;;;;;;;2.27;0.70;;;12.60;99.90;;;;;;5054493;28;20210;-56
2023/11/15 01:29:21;;;;;;;3.27;0.73;;;12.60;99.90;;;;;;5054161;28;20232;-57
2023/11/15 01:31:48;;;;;;;4.43;0.80;;;12.40;99.90;;;;;;5054626;28;20232;-57
2023/11/15 01:34:16;;;;;;;1.93;0.50;;;12.30;99.90;;;;;;5054367;28;20229;-57
2023/11/15 01:36:45;;;;;;;4.20;1.00;;;12.30;99.90;;;;;;5054378;28;20671;-57
2023/11/15 01:39:16;;;;;;;5.03;0.90;;;12.30;99.90;;;;;;5054062;28;20782;-58
2023/11/15 01:41:48;;;;;;;2.43;0.70;;;12.20;99.90;;;;;;5053834;28;20205;-57
2023/11/15 01:44:15;;;;;;;1.40;0.57;;;12.20;99.90;;;;;;5054219;28;20226;-58
2023/11/15 01:46:44;;;;;;;2.90;0.70;;;12.00;99.90;;;;;;5054198;28;20209;-58
2023/11/15 01:49:11;;;;;;;4.00;0.70;;;12.00;99.90;;;;;;5054067;28;20718;-57
2023/11/15 01:51:38;;;;;;;1.90;0.87;;;11.90;99.90;;;;;;5054055;28;20283;-58
2023/11/15 01:54:06;;;;;;;2.27;0.80;;;11.90;99.90;;;;;;5037656;28;20201;-59
2023/11/15 01:56:33;;;;;;;3.23;1.00;;;12.00;99.90;;;;;;5054304;28;20292;-58
2023/11/15 01:59:01;;;;;;;3.30;0.70;;;12.00;99.90;;;;;;5053643;28;20225;-58
2023/11/15 02:01:28;;;;;;;2.80;0.80;;;12.10;99.90;;;;;;5053932;28;20698;-58
2023/11/15 02:03:56;;;;;;;1.27;0.50;;;12.10;99.90;;;;;;5053461;28;20722;-58
2023/11/15 02:06:28;;;;;;;1.50;0.83;;;12.10;99.90;;;;;;5053967;28;20583;-58
2023/11/15 02:08:55;;;;;;;2.83;0.80;;;12.20;99.90;;;;;;5053329;28;20198;-57
2023/11/15 02:11:22;;;;;;;3.03;1.13;;;12.20;99.90;;;;;;5053828;28;20205;-57
2023/11/15 02:13:49;;;;;;;4.40;1.00;;;12.20;99.90;;;;;;5053491;28;20591;-57
2023/11/15 02:16:16;;;;;;;2.63;0.80;;;12.30;99.90;;;;;;5053375;28;20222;-58
2023/11/15 02:18:43;;;;;;;3.03;0.90;;;12.30;99.90;;;;;;5052877;28;20321;-58
2023/11/15 02:21:11;;;;;;;2.93;0.80;;;12.40;99.90;;;;;;5053398;28;20571;-57
2023/11/15 02:23:43;;;;;;;2.47;0.83;;;12.40;99.90;;;;;;5053267;28;20201;-57
2023/11/15 02:26:09;;;;;;;5.90;1.00;;;12.40;99.90;;;;;;5038024;28;20222;-56
2023/11/15 02:28:36;;;;;;;2.70;0.90;;;12.40;99.90;;;;;;5053408;28;20216;-58
2023/11/15 02:31:03;;;;;;;2.17;1.03;;;12.30;99.90;;;;;;5053202;28;20672;-58
2023/11/15 02:33:30;;;;;;;1.00;0.53;;;12.30;99.90;;;;;;5053064;28;20201;-58
2023/11/15 02:35:56;;;;;;;2.50;0.77;;;12.20;99.90;;;;;;5052930;28;20229;-58
2023/11/15 02:38:23;;;;;;;2.43;0.60;;;12.20;99.90;;;;;;5053081;28;20213;-58
2023/11/15 02:40:51;;;;;;;2.27;0.80;;;12.30;99.90;;;;;;5053136;28;20229;-59
2023/11/15 02:43:18;;;;;;;2.17;0.67;;;12.30;99.90;;;;;;5053280;28;20209;-59
2023/11/15 02:45:45;;;;;;;4.43;1.00;;;12.30;99.90;;;;;;5053033;28;20230;-58
2023/11/15 02:48:11;;;;;;;4.10;0.90;;;12.30;99.90;;;;;;5053051;28;20213;-58
2023/11/15 02:50:38;;;;;;;6.07;0.80;;;12.10;99.90;;;;;;5052875;28;20229;-58
2023/11/15 02:53:05;;;;;;;2.63;0.87;;;12.10;99.90;;;;;;5052874;28;20212;-59
2023/11/15 02:55:32;;;;;;;3.20;1.13;;;12.10;99.90;;;;;;5052625;28;20711;-59
2023/11/15 02:58:00;;;;;;;5.10;1.43;;;12.00;99.90;;;;;;5052735;28;20220;-58
2023/11/15 03:00:29;;;;;;;3.97;1.10;;;12.00;99.90;;;;;;5052461;28;20749;-58
2023/11/15 03:02:56;;;;;;;2.87;1.07;;;12.00;99.90;;;;;;5052572;28;20206;-58
2023/11/15 03:05:22;;;;;;;2.77;1.17;;;11.90;99.90;;;;;;5052974;28;20218;-57
2023/11/15 03:07:49;;;;;;;4.30;1.20;;;11.90;99.90;;;;;;5052945;28;20281;-58
2023/11/15 03:10:16;;;;;;;4.93;1.07;;;11.90;99.90;;;;;;5052896;28;20281;-57
2023/11/15 03:12:43;;;;;;;3.50;0.80;;;12.00;99.90;;;;;;5052435;28;20311;-58
2023/11/15 03:15:11;;;;;;;3.23;1.00;;;11.90;99.90;;;;;;5052355;28;20265;-58
2023/11/15 03:17:38;;;;;;;3.00;0.83;;;12.00;99.90;;;;;;5051946;28;20675;-58
2023/11/15 03:20:06;;;;;;;3.60;1.00;;;12.10;99.90;;;;;;5052107;28;20818;-58
2023/11/15 03:22:33;;;;;;;4.47;1.07;;;12.10;99.90;;;;;;5052444;28;20205;-57
2023/11/15 03:25:00;;;;;;;2.47;1.03;;;12.10;99.90;;;;;;5051866;28;20290;-58
2023/11/15 03:27:27;;;;;;;3.07;1.03;;;12.10;99.90;;;;;;5052048;28;20205;-57
2023/11/15 03:29:54;;;;;;;3.70;1.00;;;12.10;99.90;;;;;;5051134;28;20578;-58
2023/11/15 03:32:22;;;;;;;5.17;1.10;;;12.20;99.90;;;;;;5052052;28;20206;-58
2023/11/15 03:34:49;;;;;;;3.97;0.90;;;12.30;99.90;;;;;;5051949;28;20303;-58
2023/11/15 03:37:16;;;;;;;2.80;0.93;;;12.40;99.90;;;;;;5052184;28;20206;-58
2023/11/15 03:39:43;;;;;;;2.87;1.27;;;12.40;99.90;;;;;;5052284;28;20217;-57
2023/11/15 03:42:12;;;;;;;2.47;0.77;;;12.50;99.90;;;;;;5051931;28;20292;-57
2023/11/15 03:44:38;;;;;;;3.03;0.87;;;12.50;99.90;;;;;;5051760;28;20718;-58
2023/11/15 03:47:05;;;;;;;2.20;1.07;;;12.50;99.90;;;;;;5052000;28;20212;-58
2023/11/15 03:49:40;;;;;;;6.53;1.00;;;12.50;99.90;;;;;;5088734;28;20553;-59
2023/11/15 03:52:07;;;;;;;1.63;0.87;;;12.60;99.90;;;;;;5088626;28;20641;-59
2023/11/15 03:54:34;;;;;;;3.80;1.17;;;12.60;99.90;;;;;;5088156;28;20789;-58
2023/11/15 03:57:02;;;;;;;2.43;0.83;;;12.70;99.90;;;;;;5088101;28;20234;-58
2023/11/15 03:59:29;;;;;;;2.33;0.80;;;12.70;99.90;;;;;;5088388;28;20200;-58
2023/11/15 04:01:55;;;;;;;1.77;0.73;;;12.70;99.90;;;;;;5088473;28;20204;-56
2023/11/15 04:04:22;;;;;;;1.80;0.87;;;12.70;99.90;;;;;;5088013;28;20740;-56
2023/11/15 04:06:50;;;;;;;4.07;0.80;;;12.70;99.90;;;;;;5088165;28;20220;-57
2023/11/15 04:09:17;;;;;;;4.33;0.93;;;12.80;99.90;;;;;;5087988;28;20212;-57
2023/11/15 04:11:44;;;;;;;23.70;18.23;;;12.80;99.90;;;;;;5087777;28;20673;-56
2023/11/15 04:14:11;;;;;;;2.33;1.00;;;12.80;99.90;;;;;;5087954;28;20204;-56
2023/11/15 04:16:37;;;;;;;1.97;0.80;;;12.80;99.90;;;;;;5087879;28;20208;-57
2023/11/15 04:19:04;;;;;;;2.53;0.63;;;12.70;99.90;;;;;;5088015;28;20201;-56
2023/11/15 04:21:31;;;;;;;1.93;0.93;;;12.70;99.90;;;;;;5088183;28;20207;-56
2023/11/15 04:23:59;;;;;;;4.47;1.20;;;12.70;99.90;;;;;;5087567;28;20205;-57
2023/11/15 04:26:26;;;;;;;2.30;0.80;;;12.70;99.90;;;;;;5088188;28;20315;-56
2023/11/15 04:28:52;;;;;;;1.90;0.70;;;12.70;99.90;;;;;;5087573;28;20230;-56
2023/11/15 04:31:20;;;;;;;2.63;0.50;;;12.70;99.90;;;;;;5087797;28;20200;-56
2023/11/15 04:33:48;;;;;;;2.83;0.83;;;12.80;99.90;;;;;;5087545;28;20204;-56
2023/11/15 04:36:15;;;;;;;5.30;0.83;;;12.70;99.90;;;;;;5087383;28;20216;-56
2023/11/15 04:38:42;;;;;;;3.83;1.10;;;12.70;99.90;;;;;;5087504;28;20208;-57
2023/11/15 04:41:10;;;;;;;4.47;2.30;;;12.70;99.90;;;;;;5079335;28;20200;-56
2023/11/15 04:43:37;;;;;;;3.27;0.80;;;12.80;99.90;;;;;;5087498;28;20208;-55
2023/11/15 04:46:04;;;;;;;4.40;1.80;;;12.90;99.90;;;;;;5087414;28;22456;-56
2023/11/15 04:48:31;;;;;;;4.60;1.20;;;12.90;99.90;;;;;;5087341;28;20303;-56
2023/11/15 04:50:57;;;;;;;3.63;0.90;;;12.90;99.90;;;;;;5087577;28;20597;-56
2023/11/15 04:53:25;;;;;;;4.97;1.00;;;12.90;99.90;;;;;;5087216;28;20666;-58
2023/11/15 04:55:52;;;;;;;4.83;1.27;;;12.90;99.90;;;;;;5087267;28;20224;-57
2023/11/15 04:58:20;;;;;;;1.67;0.67;;;13.00;99.90;;;;;;5087561;28;20200;-57
2023/11/15 05:00:47;;;;;;;2.70;0.97;;;13.10;99.90;;;;;;5074958;28;20205;-56
2023/11/15 05:03:14;;;;;;;3.40;0.97;;;13.10;99.90;;;;;;5073783;28;20201;-56
2023/11/15 05:05:42;;;;;;;3.13;0.80;;;13.10;99.90;;;;;;5073334;28;20235;-57
2023/11/15 05:08:09;;;;;;;3.03;0.90;;;13.00;99.90;;;;;;5073356;28;20311;-56
2023/11/15 05:10:36;;;;;;;5.40;1.00;;;13.10;99.90;;;;;;5073551;28;20205;-56
2023/11/15 05:13:04;;;;;;;3.37;1.00;;;13.00;99.90;;;;;;5073571;28;20240;-57
2023/11/15 05:15:32;;;;;;;4.73;1.07;;;13.00;99.90;;;;;;5073470;28;20232;-57
2023/11/15 05:17:59;;;;;;;4.03;1.07;;;13.10;99.90;;;;;;5073412;28;20208;-57
2023/11/15 05:20:26;;;;;;;2.40;0.93;;;13.10;99.90;;;;;;5073387;28;20283;-57
2023/11/15 05:22:54;;;;;;;5.00;1.33;;;13.20;99.90;;;;;;5073455;28;20212;-58
2023/11/15 05:25:22;;;;;;;2.60;1.07;;;13.10;99.90;;;;;;5073198;28;20252;-58
2023/11/15 05:27:48;;;;;;;3.37;1.20;;;13.10;99.90;;;;;;5073226;28;20243;-56
2023/11/15 05:30:16;;;;;;;4.40;1.53;;;13.10;99.90;;;;;;5073394;28;20201;-56
2023/11/15 05:32:44;;;;;;;2.03;1.10;;;13.10;99.90;;;;;;5073227;28;20223;-56
2023/11/15 05:35:11;;;;;;;2.83;1.20;;;13.00;99.90;;;;;;5064833;28;20676;-57
2023/11/15 05:37:38;;;;;;;2.60;0.97;;;13.10;99.90;;;;;;5073371;28;20208;-57
2023/11/15 05:40:07;;;;;;;1.50;0.87;;;13.10;99.90;;;;;;5073124;28;20293;-57
2023/11/15 05:42:33;;;;;;;5.03;1.23;;;13.10;99.90;;;;;;5073351;28;20224;-56
2023/11/15 05:45:00;;;;;;;1.43;0.90;;;12.90;99.90;;;;;;5072929;28;20225;-57
2023/11/15 05:47:27;;;;;;;3.27;1.00;;;13.00;99.90;;;;;;5073171;28;20201;-57
2023/11/15 05:49:55;;;;;;;3.70;1.30;;;13.00;99.90;;;;;;5073009;28;20658;-56
2023/11/15 05:52:22;;;;;;;3.93;1.00;;;12.90;99.90;;;;;;5073084;28;20205;-57
2023/11/15 05:54:49;;;;;;;1.80;0.87;;;12.80;99.90;;;;;;5072765;28;20311;-57
2023/11/15 05:57:16;;;;;;;3.10;1.00;;;12.80;99.90;;;;;;5072779;28;20228;-57
2023/11/15 05:59:43;;;;;;;5.40;1.27;;;12.80;99.90;;;;;;5072459;28;20688;-57
2023/11/15 06:02:11;;;;;;;3.10;1.10;;;12.80;99.90;;;;;;5072344;28;20229;-57
2023/11/15 06:04:37;;;;;;;4.13;1.73;;;12.80;99.90;;;;;;5072392;28;20714;-58
2023/11/15 06:07:06;;;;;;;4.57;1.57;;;12.80;99.90;;;;;;5072583;28;20201;-56
2023/11/15 06:09:32;;;;;;;5.07;1.37;;;12.80;99.90;;;;;;5072114;28;20765;-56
2023/11/15 06:12:00;;;;;;;3.83;1.27;;;12.80;99.90;;;;;;5071048;28;20201;-56
2023/11/15 06:14:26;;;;;;;3.50;1.53;;;12.80;99.90;;;;;;5071941;28;20220;-57
2023/11/15 06:16:53;;;;;;;4.60;1.50;;;12.80;99.90;;;;;;5071792;28;20209;-56
2023/11/15 06:19:22;;;;;;;3.47;1.23;;;12.80;99.90;;;;;;5072488;28;20267;-58
2023/11/15 06:21:48;;;;;;;2.43;1.00;;;12.80;99.90;;;;;;5072149;28;20212;-58
2023/11/15 06:24:16;;;;;;;4.13;1.17;;;12.80;99.90;;;;;;5071959;28;20231;-57
2023/11/15 06:26:44;;;;;;;7.13;1.80;;;12.70;99.90;;;;;;5072134;28;20205;-57
2023/11/15 06:29:11;;;;;;;4.30;1.00;;;12.70;99.90;;;;;;5071662;28;20634;-57
2023/11/15 06:31:38;;;;;;;3.73;1.33;;;12.60;99.90;;;;;;5071981;28;20209;-57
2023/11/15 06:34:05;;;;;;;7.23;2.47;;;12.60;99.90;;;;;;5071450;28;20208;-57
2023/11/15 06:36:34;;;;;;;4.40;1.63;;;12.70;99.90;;;;;;5072313;28;20291;-57
2023/11/15 06:39:03;;;;;;;4.60;1.90;;;12.70;99.90;;;;;;5071679;28;20667;-57
2023/11/15 06:41:33;;;;;;;7.27;1.80;;;12.70;99.90;;;;;;5071503;28;20212;-56
2023/11/15 06:44:00;;;;;;;4.70;1.80;;;12.70;99.90;;;;;;5071242;28;20230;-57
2023/11/15 06:46:27;;;;;;;7.23;2.90;;;12.80;99.90;;;;;;5071513;28;20669;-56
2023/11/15 06:48:54;;;;;;;6.47;1.73;;;12.80;99.90;;;;;;5071105;28;20574;-56
2023/11/15 06:51:20;;;;;;;5.57;1.50;;;12.80;99.90;;;;;;5071562;28;20205;-58
2023/11/15 06:53:47;;;;;;;3.67;1.40;;;12.80;99.90;;;;;;5070364;28;20434;-60
2023/11/15 06:56:14;;;;;;;2.33;0.93;;;12.80;99.90;;;;;;5063325;28;20229;-61
2023/11/15 06:58:42;;;;;;;4.37;1.80;;;12.90;99.90;;;;;;5071457;28;20216;-58
2023/11/15 07:01:08;;;;;;;3.10;1.13;;;12.90;99.90;;;;;;5071298;28;20213;-62
2023/11/15 07:03:36;;;;;;;3.53;1.33;;;13.00;99.90;;;;;;5071217;28;20591;-61
2023/11/15 07:06:05;;;;;;;3.03;1.60;;;13.00;99.90;;;;;;5070951;28;20229;-61
2023/11/15 07:08:33;;;;;;;2.33;0.87;;;13.00;99.90;;;;;;5071087;28;20254;-58
2023/11/15 07:11:01;;;;;;;5.97;0.93;;;12.90;99.90;;;;;;5070976;28;20240;-60
2023/11/15 07:13:29;;;;;;;2.77;1.00;;;12.90;99.90;;;;;;5070987;28;20225;-56
2023/11/15 07:16:01;;;;;;;2.17;0.97;;;12.90;99.90;;;;;;5070832;28;20220;-56
2023/11/15 07:18:28;;;;;;;1.70;0.90;;;12.90;99.90;;;;;;5070801;28;20232;-56
2023/11/15 07:20:55;;;;;;;2.27;1.00;;;12.90;99.90;;;;;;5070837;28;20303;-56
2023/11/15 07:23:22;;;;;;;1.07;0.57;;;13.00;99.90;;;;;;5070412;28;20205;-57
2023/11/15 07:25:48;;;;;;;2.17;0.70;;;13.10;99.90;;;;;;5071162;28;20601;-56
2023/11/15 07:28:19;;;;;;;1.63;0.70;;;13.00;99.90;;;;;;5062946;28;20201;-57
2023/11/15 07:30:46;;;;;;;4.20;0.90;;;13.00;99.90;;;;;;5070899;28;20291;-56
2023/11/15 07:33:14;;;;;;;2.80;0.90;;;13.20;99.90;;;;;;5071050;28;20205;-60
2023/11/15 07:35:41;;;;;;;5.67;1.20;;;13.20;99.90;;;;;;5070764;28;20316;-58
2023/11/15 07:38:08;;;;;;;5.97;1.50;;;13.20;99.90;;;;;;5070890;28;20212;-56
2023/11/15 07:40:37;;;;;;;5.00;1.27;;;13.30;99.90;;;;;;5071243;28;20292;-55
2023/11/15 07:43:05;;;;;;;4.43;1.10;;;13.40;99.90;;;;;;5070946;28;20220;-55
2023/11/15 07:45:35;;;;;;;5.20;1.43;;;13.50;99.90;;;;;;5071095;28;20228;-56
2023/11/15 07:48:01;;;;;;;5.57;1.53;;;13.60;99.90;;;;;;5070853;28;20516;-56
2023/11/15 07:50:31;;;;;;;3.80;1.13;;;13.60;99.90;;;;;;5070705;28;20312;-63
2023/11/15 07:52:57;;;;;;;4.13;1.13;;;13.60;99.90;;;;;;5070355;28;20208;-61
2023/11/15 07:55:24;;;;;;;3.87;1.80;;;13.50;99.90;;;;;;5070588;28;20301;-55
2023/11/15 07:57:51;;;;;;;3.90;1.30;;;13.50;99.90;;;;;;5070674;28;20626;-53
2023/11/15 08:00:22;;;;;;;3.77;1.43;;;13.50;99.90;;;;;;5070551;28;20224;-56
2023/11/15 08:02:51;;;;;;;3.30;1.10;;;13.50;99.90;;;;;;5070712;28;20590;-54
2023/11/15 08:05:18;;;;;;;3.73;1.20;;;13.50;99.90;;;;;;5070545;28;20225;-56
2023/11/15 08:07:46;;;;;;;2.87;0.90;;;13.40;99.90;;;;;;5070773;28;20215;-56
2023/11/15 08:10:14;;;;;;;5.57;1.23;;;13.40;99.90;;;;;;5070355;28;20248;-56
2023/11/15 08:12:43;;;;;;;4.17;1.13;;;13.50;99.90;;;;;;5070628;28;20204;-56
2023/11/15 08:15:11;;;;;;;5.70;1.87;;;13.40;99.90;;;;;;5070663;28;20221;-57
2023/11/15 08:17:38;;;;;;;3.60;1.13;;;13.50;99.90;;;;;;5070627;28;20781;-56
2023/11/15 08:20:09;;;;;;;5.07;1.50;;;13.50;99.90;;;;;;5070093;28;20211;-56
2023/11/15 08:22:36;;;;;;;5.80;1.67;;;13.60;99.90;;;;;;5070455;28;20667;-56
2023/11/15 08:25:15;;;;;;;2.93;1.30;;;13.60;99.90;;;;;;5070286;28;20224;-56
2023/11/15 08:27:42;;;;;;;4.53;1.43;;;13.60;99.90;;;;;;5070442;28;20650;-56
2023/11/15 08:30:12;;;;;;;5.33;1.40;;;13.50;99.90;;;;;;5069955;28;20698;-56
2023/11/15 08:32:41;;;;;;;5.23;1.70;;;13.50;99.90;;;;;;5070284;28;20216;-56
2023/11/15 08:35:09;;;;;;;7.60;1.63;;;13.60;99.90;;;;;;5072059;28;20235;-56
2023/11/15 08:37:37;;;;;;;6.20;1.50;;;13.60;99.90;;;;;;5074667;28;20205;-56
2023/11/15 08:40:10;;;;;;;4.80;1.73;;;13.60;99.90;;;;;;5074522;28;20276;-56
2023/11/15 08:42:37;;;;;;;5.40;1.47;;;13.60;99.90;;;;;;5074128;28;20669;-56
2023/11/15 08:45:06;;;;;;;4.47;1.50;;;13.70;99.90;;;;;;5073860;28;20220;-56
2023/11/15 08:47:33;;;;;;;5.00;1.30;;;13.80;99.90;;;;;;5073878;28;20209;-54
2023/11/15 08:50:00;;;;;;;4.63;1.23;;;13.80;99.90;;;;;;5073660;28;20228;-56
2023/11/15 08:52:27;;;;;;;5.57;2.43;;;13.90;99.90;;;;;;5073738;28;20211;-55
2023/11/15 08:54:56;;;;;;;6.57;2.43;;;13.90;99.90;;;;;;5073204;28;20236;-57
2023/11/15 08:57:24;;;;;;;5.57;1.50;;;13.90;99.90;;;;;;5073858;28;20215;-57
2023/11/15 08:59:50;;;;;;;6.03;1.70;;;13.90;99.90;;;;;;5073839;28;20208;-57
2023/11/15 09:02:21;;;;;;;13.67;6.80;;;13.90;99.90;;;;;;5073630;28;20582;-56
2023/11/15 09:04:50;;;;;;;4.00;1.33;;;13.90;99.90;;;;;;5072991;28;20596;-56
2023/11/15 09:07:19;;;;;;;5.23;1.40;;;14.00;99.90;;;;;;5072986;28;20201;-56
2023/11/15 09:09:46;;;;;;;4.97;0.90;;;14.10;99.90;;;;;;5073024;28;20282;-55
2023/11/15 09:12:15;;;;;;;3.73;1.30;;;14.10;99.90;;;;;;5072876;28;20687;-58
2023/11/15 09:14:44;;;;;;;5.50;1.20;;;14.20;99.90;;;;;;5072654;28;20270;-57
2023/11/15 09:17:17;;;;;;;5.00;1.70;;;14.30;99.90;;;;;;5073231;28;20208;-56
2023/11/15 09:19:46;;;;;;;4.13;1.27;;;14.30;99.90;;;;;;5073453;28;20288;-57
2023/11/15 09:22:13;;;;;;;1.97;1.23;;;14.40;99.90;;;;;;5073298;28;20221;-56
2023/11/15 09:24:40;;;;;;;1.77;1.20;;;14.70;99.90;;;;;;5073140;28;20722;-56
2023/11/15 09:27:07;;;;;;;3.70;1.60;;;14.50;99.90;;;;;;5073205;28;20205;-57
2023/11/15 09:29:34;;;;;;;2.83;1.53;;;14.60;99.90;;;;;;5072947;28;20231;-55
2023/11/15 09:32:03;;;;;;;3.53;1.10;;;14.80;99.90;;;;;;5072935;28;20201;-58
2023/11/15 09:34:30;;;;;;;2.83;1.20;;;14.80;99.90;;;;;;5072787;28;20221;-55
2023/11/15 09:36:57;;;;;;;6.97;1.50;;;14.80;99.90;;;;;;5072946;28;20212;-56
2023/11/15 09:39:24;;;;;;;2.80;1.00;;;14.80;99.90;;;;;;5073195;28;20278;-57
2023/11/15 09:41:53;;;;;;;3.10;1.30;;;14.90;99.90;;;;;;5072920;28;20213;-56
2023/11/15 09:44:23;;;;;;;2.07;1.20;;;15.00;99.90;;;;;;5064893;28;20217;-57
2023/11/15 09:46:53;;;;;;;4.13;1.27;;;15.20;99.90;;;;;;5072947;28;20208;-57
2023/11/15 09:49:24;;;;;;;3.77;0.97;;;15.40;99.90;;;;;;5064623;28;20213;-56
2023/11/15 09:51:52;;;;;;;2.83;1.30;;;15.60;99.90;;;;;;5073092;28;20201;-55
2023/11/15 09:54:20;;;;;;;3.03;1.30;;;15.80;99.90;;;;;;5064316;28;20636;-60
2023/11/15 09:56:49;;;;;;;2.97;1.00;;;16.00;99.90;;;;;;5072634;28;20216;-61
2023/11/15 09:59:16;;;;;;;2.90;1.30;;;16.00;99.90;;;;;;5072452;28;20202;-57
2023/11/15 10:01:45;;;;;;;3.30;1.03;;;16.00;99.90;;;;;;5081575;22;20241;-57
2023/11/15 10:04:23;;;;;;;4.20;1.30;;;15.80;99.90;;;;;;5052159;28;20206;-58
2023/11/15 10:06:51;;;;;;;3.13;0.87;;;15.50;99.90;;;;;;5052901;28;20201;-58
2023/11/15 10:09:31;;;;;;;3.33;1.27;;;15.20;99.90;;;;;;5052428;28;20201;-58
2023/11/15 10:12:01;;;;;;;4.67;0.80;;;14.90;99.90;;;;;;5061212;28;20230;-58
2023/11/15 10:14:29;;;;;;;2.37;1.10;;;14.80;99.90;;;;;;5064131;28;20201;-58
2023/11/15 10:16:56;;;;;;;2.70;0.80;;;14.80;99.90;;;;;;5064103;28;20365;-58
2023/11/15 10:19:26;;;;;;;2.23;0.97;;;14.70;99.90;;;;;;5060621;28;20652;-58
2023/11/15 10:21:56;;;;;;;4.80;0.90;;;14.50;99.90;;;;;;5068753;28;20235;-58
2023/11/15 10:24:23;;;;;;;2.43;0.90;;;14.40;99.90;;;;;;5060485;28;20198;-58
2023/11/15 10:26:50;;;;;;;3.33;0.80;;;14.40;99.90;;;;;;5060513;28;20217;-58
2023/11/15 10:29:19;;;;;;;3.23;0.83;;;14.60;99.90;;;;;;5068650;28;20266;-58
2023/11/15 10:31:51;;;;;;;4.03;0.90;;;14.80;99.90;;;;;;5059807;28;20271;-58
2023/11/15 10:34:19;;;;;;;1.20;0.70;;;14.80;99.90;;;;;;5063018;28;20213;-58
2023/11/15 10:37:07;;;;;;;3.90;0.80;;;14.80;99.90;;;;;;5063727;28;20201;-57
2023/11/15 10:39:40;;;;;;;2.13;1.13;;;14.90;99.90;;;;;;5060495;28;20201;-61
2023/11/15 10:42:09;;;;;;;1.50;1.00;;;15.00;99.90;;;;;;5068276;28;20653;-58
2023/11/15 10:44:38;;;;;;;1.50;0.70;;;15.20;99.90;;;;;;5065829;28;20205;-58
2023/11/15 10:47:07;;;;;;;1.90;0.50;;;15.30;99.90;;;;;;5062080;28;20205;-58
2023/11/15 10:49:42;;;;;;;1.73;0.67;;;15.30;99.90;;;;;;5060172;28;20202;-57
2023/11/15 10:52:11;;;;;;;1.80;0.57;;;15.30;99.90;;;;;;5069891;28;20252;-57
2023/11/15 10:54:39;;;;;;;2.17;1.42;;;15.40;99.90;;;;;;5063300;28;20217;-63
2023/11/15 10:57:09;;;;;;;4.88;0.90;;;15.50;99.90;;;;;;5060465;28;20438;-62
2023/11/15 10:59:40;;;;;;;1.90;0.90;;;15.70;99.90;;;;;;5059666;28;20235;-57
2023/11/15 11:02:09;;;;;;;2.20;0.80;;;15.70;99.90;;;;;;5067791;28;20604;-56
2023/11/15 11:04:38;;;;;;;1.73;0.60;;;15.80;99.90;;;;;;5059416;28;20279;-56
2023/11/15 11:07:14;;;;;;;3.58;0.93;;;15.70;99.90;;;;;;5060634;28;20647;-57
2023/11/15 11:09:48;;;;;;;1.90;0.90;;;15.60;99.90;;;;;;5052643;28;20589;-59
2023/11/15 11:12:21;;;;;;;2.83;0.70;;;15.70;99.90;;;;;;5061854;28;20232;-61
2023/11/15 11:14:49;;;;;;;2.50;1.00;;;15.70;99.90;;;;;;5062446;28;20251;-62
2023/11/15 11:17:32;;;;;;;2.73;0.90;;;15.60;99.90;;;;;;5059930;28;20567;-62
2023/11/15 11:20:00;;;;;;;3.03;1.00;;;15.60;99.90;;;;;;5059339;28;20197;-62
2023/11/15 11:22:29;;;;;;;3.50;0.80;;;15.70;99.90;;;;;;5062371;28;20213;-62
2023/11/15 11:25:21;;;;;;;1.20;0.67;;;15.70;99.90;;;;;;5062098;28;20570;-61
2023/11/15 11:27:56;;;;;;;2.60;0.50;;;16.00;99.90;;;;;;5059413;28;20215;-64
2023/11/15 11:30:23;;;;;;;2.07;0.90;;;16.10;99.90;;;;;;5058768;28;20306;-64
2023/11/15 11:33:06;;;;;;;3.70;1.60;;;16.10;99.90;;;;;;5059282;28;20213;-61
2023/11/15 11:35:34;;;;;;;3.15;1.00;;;16.10;99.90;;;;;;5059080;28;20252;-63
2023/11/15 11:38:03;;;;;;;2.22;1.05;;;16.20;99.90;;;;;;5059562;28;20210;-62
2023/11/15 11:40:33;;;;;;;3.67;0.73;;;16.30;99.90;;;;;;5057859;28;20229;-62
2023/11/15 11:43:15;;;;;;;2.05;0.93;;;16.30;99.90;;;;;;5059127;28;20629;-61
2023/11/15 11:45:43;;;;;;;5.55;2.33;;;16.30;99.90;;;;;;5062137;28;20205;-63
2023/11/15 11:48:17;;;;;;;3.58;1.05;;;16.40;99.90;;;;;;5059829;28;20601;-64
2023/11/15 11:50:55;;;;;;;3.50;1.40;;;16.40;99.90;;;;;;5049628;28;20248;-58
2023/11/15 11:53:24;;;;;;;3.17;1.00;;;16.40;99.90;;;;;;5050340;28;20213;-62
2023/11/15 11:55:54;;;;;;;3.22;1.17;;;16.50;99.90;;;;;;5056395;28;20212;-59
2023/11/15 11:58:21;;;;;;;6.72;1.70;;;16.50;99.90;;;;;;5062395;28;20205;-62
2023/11/15 12:00:48;;;;;;;3.58;1.67;;;16.50;99.90;;;;;;5055219;28;20233;-63
2023/11/15 12:03:15;;;;;;;5.53;2.25;;;16.50;99.90;;;;;;5065366;28;20217;-61
2023/11/15 12:05:43;;;;;;;2.25;1.08;;;16.40;99.90;;;;;;5064512;28;20292;-58
2023/11/15 12:08:09;;;;;;;2.05;1.00;;;16.30;99.90;;;;;;5058639;28;20590;-58
2023/11/15 12:10:42;;;;;;;2.70;1.10;;;16.30;99.90;;;;;;5061057;28;20229;-58
2023/11/15 12:13:10;;;;;;;7.25;2.28;;;16.30;99.90;;;;;;5064380;28;20738;-58
2023/11/15 12:15:38;;;;;;;4.25;1.35;;;16.30;99.90;;;;;;5065932;28;20204;-58
2023/11/15 12:18:06;;;;;;;3.70;0.90;;;16.40;99.90;;;;;;5065035;28;20204;-59
2023/11/15 12:20:34;;;;;;;3.60;1.25;;;16.30;99.90;;;;;;5062392;28;20228;-58
2023/11/15 12:23:06;;;;;;;5.30;1.73;;;16.40;99.90;;;;;;5063585;28;20237;-58
2023/11/15 12:25:33;;;;;;;3.63;1.10;;;16.40;99.90;;;;;;5065696;28;20236;-57
2023/11/15 12:28:05;;;;;;;2.78;0.93;;;16.40;99.90;;;;;;5065929;28;20295;-57
2023/11/15 12:30:33;;;;;;;4.78;1.25;;;16.40;99.90;;;;;;5062285;28;20225;-58
2023/11/15 12:33:02;;;;;;;4.30;1.10;;;16.50;99.90;;;;;;5062722;28;20201;-57
2023/11/15 12:35:30;;;;;;;2.97;1.30;;;16.60;99.90;;;;;;5065587;28;20705;-57
2023/11/15 12:37:57;;;;;;;4.55;1.08;;;16.80;99.90;;;;;;5065785;28;20216;-58
2023/11/15 12:40:25;;;;;;;2.97;1.10;;;16.80;99.90;;;;;;5062335;28;20228;-58
2023/11/15 12:42:56;;;;;;;3.20;1.27;;;16.70;99.90;;;;;;5062250;28;20573;-58
2023/11/15 12:45:32;;;;;;;4.05;1.33;;;16.60;99.90;;;;;;5070463;28;20213;-58
2023/11/15 12:48:03;;;;;;;6.18;1.30;;;16.40;99.90;;;;;;5070690;28;20208;-58
2023/11/15 12:50:31;;;;;;;4.43;3.58;;;16.20;99.90;;;;;;5061954;28;20690;-58